Terminal Aerodrome Forecast
Issued by NWS

Home | Current Version | Previous Version | Graphics & Text | Print | Product List | Glossary On
Versions: 1 2 3 4 5 6 7 8 9 10 11 12 13 14 15 16
000
FTUS41 KCLE 232335
TAFFDY
TAF
KFDY 232335Z 2400/2424 15010KT P6SM BKN120
     FM240500 18010KT P6SM VCSH OVC050
     FM240700 19012KT P6SM OVC080 WS020/23050KT
     FM241600 21019G27KT P6SM BKN030 BKN080
     FM242300 21013KT P6SM SCT030 BKN080=

USA.gov is the U.S. government's official web portal to all federal, state and local government web resources and services.